createdAt,value
2022-11-10T07:39:01.919Z,81.87
2022-11-10T07:39:12.104Z,81.98
2022-11-10T07:39:22.227Z,82.28
2022-11-10T07:39:32.225Z,82.39
2022-11-10T07:39:42.368Z,82.18
2022-11-10T07:39:52.440Z,81.98
2022-11-10T07:40:02.501Z,81.77
2022-11-10T07:40:12.619Z,81.67
2022-11-10T07:40:22.700Z,81.67
2022-11-10T07:40:32.780Z,81.67
2022-11-10T07:40:42.858Z,81.77
2022-11-10T07:40:52.919Z,81.98
2022-11-10T07:41:02.978Z,82.28
2022-11-10T07:41:13.048Z,82.28
2022-11-10T07:41:23.177Z,81.98
2022-11-10T07:41:33.221Z,81.77
2022-11-10T07:41:43.339Z,81.67
2022-11-10T07:41:53.427Z,81.57
2022-11-10T07:42:03.508Z,81.57
2022-11-10T07:42:13.627Z,81.57
2022-11-10T07:42:23.667Z,81.57
2022-11-10T07:42:33.798Z,81.57
2022-11-10T07:42:43.870Z,81.57
2022-11-10T07:42:53.949Z,81.57
2022-11-10T07:43:04.009Z,81.57
2022-11-10T07:43:14.111Z,81.57
2022-11-10T07:43:24.648Z,81.57
2022-11-10T07:43:34.191Z,81.57
2022-11-10T07:43:44.270Z,81.67
2022-11-10T07:43:54.359Z,81.67
2022-11-10T07:44:04.433Z,81.67
2022-11-10T07:44:14.499Z,81.57
2022-11-10T07:44:24.558Z,81.57
2022-11-10T07:44:34.699Z,81.57
2022-11-10T07:44:44.670Z,81.57
2022-11-10T07:44:54.776Z,81.57
2022-11-10T07:45:04.858Z,81.46
2022-11-10T07:45:14.938Z,81.46
2022-11-10T07:45:24.998Z,81.46
2022-11-10T07:45:35.075Z,81.46
2022-11-10T07:45:45.147Z,81.46
2022-11-10T07:45:55.203Z,81.57
2022-11-10T07:46:05.269Z,81.57
2022-11-10T07:46:15.337Z,81.67
2022-11-10T07:46:25.408Z,81.67
2022-11-10T07:46:35.558Z,81.67
2022-11-10T07:46:45.627Z,81.67
2022-11-10T07:46:55.648Z,81.67
2022-11-10T07:47:05.699Z,81.67
2022-11-10T07:47:15.769Z,81.67
2022-11-10T07:47:25.867Z,81.67
2022-11-10T07:47:35.866Z,81.77
2022-11-10T07:47:45.967Z,81.77
2022-11-10T07:47:56.069Z,81.67
2022-11-10T07:48:06.175Z,81.67
2022-11-10T07:48:16.208Z,81.67
2022-11-10T07:48:26.219Z,81.57
2022-11-10T07:48:36.287Z,81.57
2022-11-10T07:48:46.337Z,81.57
2022-11-10T07:48:56.408Z,81.67
2022-11-10T07:49:06.478Z,81.87
2022-11-10T07:49:16.548Z,82.08
2022-11-10T07:49:26.636Z,82.18
2022-11-10T07:49:36.705Z,82.08
2022-11-10T07:49:46.760Z,81.98
2022-11-10T07:49:56.865Z,81.98
2022-11-10T07:50:06.917Z,81.98
2022-11-10T07:50:16.988Z,81.87
2022-11-10T07:50:27.101Z,81.67
2022-11-10T07:50:37.147Z,81.57
2022-11-10T07:50:47.247Z,81.43
2022-11-10T07:50:57.299Z,81.37
2022-11-10T07:51:07.378Z,81.37
2022-11-10T07:51:17.459Z,81.32
2022-11-10T07:51:27.518Z,81.23
2022-11-10T07:51:37.596Z,81.26
2022-11-10T07:51:47.648Z,81.26
2022-11-10T07:51:57.710Z,81.23
2022-11-10T07:52:07.797Z,81.32
2022-11-10T07:52:17.859Z,81.43
2022-11-10T07:52:27.927Z,81.32
2022-11-10T07:52:37.996Z,81.12
2022-11-10T07:52:48.088Z,81.12
2022-11-10T07:52:58.171Z,81.02
2022-11-10T07:53:08.239Z,81.05
2022-11-10T07:53:18.317Z,81.12
2022-11-10T07:53:28.376Z,81.05
2022-11-10T07:53:38.469Z,81.05
2022-11-10T07:53:48.532Z,80.96
2022-11-10T07:53:58.597Z,80.96
2022-11-10T07:54:08.677Z,80.96
2022-11-10T07:54:18.756Z,80.96
2022-11-10T07:54:28.915Z,81.05
2022-11-10T07:54:38.987Z,81.05
2022-11-10T07:54:49.139Z,81.05
2022-11-10T07:54:59.217Z,81.05
2022-11-10T07:55:09.297Z,81.05
2022-11-10T07:55:19.369Z,81.16
2022-11-10T07:55:29.440Z,81.16
2022-11-10T07:55:39.516Z,81.16
2022-11-10T07:55:49.597Z,81.16
2022-11-10T07:55:59.558Z,81.16
2022-11-10T07:56:09.655Z,81.16
2022-11-10T07:56:19.755Z,81.26
2022-11-10T07:56:29.848Z,81.26
2022-11-10T07:56:39.900Z,81.26
2022-11-10T07:56:49.983Z,81.26
2022-11-10T07:57:00.047Z,81.26
2022-11-10T07:57:10.140Z,81.26
2022-11-10T07:57:20.191Z,81.26
2022-11-10T07:57:30.255Z,81.26
2022-11-10T07:57:40.337Z,81.16
2022-11-10T07:57:50.397Z,81.16
2022-11-10T07:58:00.464Z,81.16
2022-11-10T07:58:10.517Z,81.16
2022-11-10T07:58:20.597Z,81.16
2022-11-10T07:58:30.657Z,81.16
2022-11-10T07:58:40.787Z,81.16
2022-11-10T07:58:50.847Z,81.16
2022-11-10T07:59:00.927Z,81.16
2022-11-10T07:59:10.997Z,81.16
2022-11-10T07:59:21.074Z,81.16
2022-11-10T07:59:31.145Z,81.16
2022-11-10T07:59:41.199Z,81.16
2022-11-10T07:59:52.958Z,81.16
2022-11-10T08:00:02.136Z,81.05
2022-11-10T08:00:12.203Z,81.05
2022-11-10T08:00:22.289Z,81.05
2022-11-10T08:00:32.334Z,81.05
2022-11-10T08:00:42.416Z,81.05
2022-11-10T08:00:52.641Z,81.05
2022-11-10T08:01:02.528Z,81.16
2022-11-10T08:01:12.641Z,81.16
2022-11-10T08:01:22.789Z,81.05
2022-11-10T08:01:32.895Z,81.16
2022-11-10T08:01:43.022Z,81.16
2022-11-10T08:01:53.172Z,81.16
2022-11-10T08:02:03.295Z,81.16
2022-11-10T08:02:13.286Z,81.16
2022-11-10T08:02:23.406Z,81.16
2022-11-10T08:02:33.483Z,81.26
2022-11-10T08:02:43.446Z,81.26
2022-11-10T08:02:53.506Z,81.26
2022-11-10T08:03:03.576Z,81.26
2022-11-10T08:03:13.642Z,81.26
2022-11-10T08:03:23.985Z,81.26
2022-11-10T08:03:33.776Z,81.26
2022-11-10T08:03:43.856Z,81.37
2022-11-10T08:03:53.918Z,81.26
2022-11-10T08:04:03.987Z,81.37
2022-11-10T08:04:14.064Z,81.37
2022-11-10T08:04:24.132Z,81.26
2022-11-10T08:04:34.207Z,81.26
2022-11-10T08:04:44.350Z,81.37
2022-11-10T08:04:54.435Z,81.26
2022-11-10T08:05:04.510Z,81.26
2022-11-10T08:05:14.586Z,81.26
2022-11-10T08:05:24.662Z,81.26
2022-11-10T08:05:34.748Z,81.26
2022-11-10T08:05:44.835Z,81.26
2022-11-10T08:05:54.916Z,81.26
2022-11-10T08:06:04.986Z,81.26
2022-11-10T08:06:15.080Z,81.16
2022-11-10T08:06:25.218Z,81.16
2022-11-10T08:06:36.431Z,81.16
2022-11-10T08:06:45.546Z,81.26
2022-11-10T08:06:55.564Z,81.26
2022-11-10T08:07:05.585Z,81.26
2022-11-10T08:07:15.609Z,81.26
2022-11-10T08:07:25.765Z,81.26
2022-11-10T08:07:35.793Z,81.37
2022-11-10T08:07:45.790Z,81.37
2022-11-10T08:07:55.885Z,81.37
2022-11-10T08:08:05.936Z,81.37
2022-11-10T08:08:16.026Z,81.37
2022-11-10T08:08:26.094Z,81.37
2022-11-10T08:08:36.167Z,81.37
2022-11-10T08:08:46.257Z,81.37
2022-11-10T08:08:56.325Z,81.37
2022-11-10T08:09:06.375Z,81.26
2022-11-10T08:09:16.517Z,81.26
2022-11-10T08:09:26.613Z,81.26
2022-11-10T08:09:36.706Z,81.37
2022-11-10T08:09:46.786Z,81.37
2022-11-10T08:09:56.907Z,81.37
2022-11-10T08:10:07.017Z,81.37
2022-11-10T08:10:17.078Z,81.37
2022-11-10T08:10:27.198Z,81.37
2022-11-10T08:10:37.277Z,81.37
2022-11-10T08:10:47.353Z,81.46
2022-11-10T08:10:57.426Z,81.46
2022-11-10T08:11:07.507Z,81.46
2022-11-10T08:11:17.627Z,81.46
2022-11-10T08:11:27.706Z,81.46
2022-11-10T08:11:37.804Z,81.46
2022-11-10T08:11:47.877Z,81.46
2022-11-10T08:11:57.958Z,81.46
2022-11-10T08:12:08.021Z,81.46
2022-11-10T08:12:18.085Z,81.46
2022-11-10T08:12:31.269Z,81.46
2022-11-10T08:12:39.112Z,81.57
2022-11-10T08:12:49.096Z,81.57
2022-11-10T08:12:59.167Z,81.57
2022-11-10T08:13:09.223Z,81.57
2022-11-10T08:13:19.371Z,81.57
2022-11-10T08:13:29.287Z,81.57
2022-11-10T08:13:39.363Z,81.57
2022-11-10T08:13:49.427Z,81.57
2022-11-10T08:13:59.533Z,81.57
2022-11-10T08:14:09.603Z,81.57
2022-11-10T08:14:19.739Z,81.57
2022-11-10T08:14:29.803Z,81.57
2022-11-10T08:14:40.012Z,81.46
2022-11-10T08:14:50.077Z,81.46
2022-11-10T08:15:00.155Z,81.46
2022-11-10T08:15:10.234Z,81.46
2022-11-10T08:15:20.352Z,81.46
2022-11-10T08:15:30.428Z,81.46
2022-11-10T08:15:40.495Z,81.46
2022-11-10T08:15:50.564Z,81.46
2022-11-10T08:16:00.640Z,81.43
2022-11-10T08:16:10.705Z,81.43
2022-11-10T08:16:20.735Z,81.43
2022-11-10T08:16:30.803Z,81.43
2022-11-10T08:16:40.877Z,81.43
2022-11-10T08:16:50.947Z,81.32
2022-11-10T08:17:01.014Z,81.23
2022-11-10T08:17:11.073Z,81.12
2022-11-10T08:17:21.135Z,81.12
2022-11-10T08:17:31.205Z,81.02
2022-11-10T08:17:41.258Z,81.02
2022-11-10T08:17:51.405Z,81.02
2022-11-10T08:18:01.492Z,81.02
2022-11-10T08:18:11.557Z,81.02
2022-11-10T08:18:21.617Z,81.02
2022-11-10T08:18:35.309Z,81.02
2022-11-10T08:18:41.745Z,81.02
2022-11-10T08:18:51.825Z,81.02
2022-11-10T08:19:01.909Z,80.91
2022-11-10T08:19:11.975Z,80.91
2022-11-10T08:19:22.085Z,80.91
2022-11-10T08:19:32.161Z,80.91
2022-11-10T08:19:42.236Z,80.91
2022-11-10T08:19:52.315Z,80.91
2022-11-10T08:20:02.436Z,80.91
2022-11-10T08:20:12.504Z,80.91
2022-11-10T08:20:22.595Z,80.91
2022-11-10T08:20:32.714Z,80.82
2022-11-10T08:20:42.796Z,80.91
2022-11-10T08:20:52.876Z,80.91
2022-11-10T08:21:02.947Z,80.91
2022-11-10T08:21:13.005Z,80.91
2022-11-10T08:21:23.083Z,80.91
2022-11-10T08:21:33.156Z,80.91
2022-11-10T08:21:43.223Z,80.91
2022-11-10T08:21:53.305Z,80.91
2022-11-10T08:22:03.375Z,80.91
2022-11-10T08:22:13.442Z,80.91
2022-11-10T08:22:23.543Z,80.91
2022-11-10T08:22:33.655Z,80.91
2022-11-10T08:22:43.735Z,81.02
2022-11-10T08:22:53.836Z,81.02
2022-11-10T08:23:03.898Z,81.02
2022-11-10T08:23:13.962Z,81.02
2022-11-10T08:23:24.386Z,81.12
2022-11-10T08:23:34.137Z,81.12
2022-11-10T08:23:44.215Z,81.02
2022-11-10T08:23:54.283Z,81.02
2022-11-10T08:24:04.384Z,81.02
2022-11-10T08:24:14.475Z,81.02
2022-11-10T08:24:24.544Z,81.02
2022-11-10T08:24:34.626Z,81.02
2022-11-10T08:24:44.714Z,81.02
2022-11-10T08:24:54.792Z,81.02
2022-11-10T08:25:04.929Z,80.91
2022-11-10T08:25:15.011Z,81.02
2022-11-10T08:25:26.389Z,80.91
2022-11-10T08:25:35.696Z,80.91
2022-11-10T08:25:45.336Z,80.91
2022-11-10T08:25:55.415Z,80.82
2022-11-10T08:26:05.529Z,80.82
2022-11-10T08:26:15.581Z,80.82
2022-11-10T08:26:25.708Z,80.82
2022-11-10T08:26:35.765Z,80.82
2022-11-10T08:26:45.835Z,80.82
2022-11-10T08:26:55.936Z,80.82
2022-11-10T08:27:06.002Z,80.82
2022-11-10T08:27:16.056Z,80.82
2022-11-10T08:27:26.096Z,80.82
2022-11-10T08:27:36.159Z,80.82
2022-11-10T08:27:46.195Z,80.71
2022-11-10T08:27:56.245Z,80.71
2022-11-10T08:28:06.301Z,80.71
2022-11-10T08:28:16.355Z,80.71
2022-11-10T08:28:26.422Z,80.71
2022-11-10T08:28:36.483Z,80.71
2022-11-10T08:28:46.580Z,80.71
2022-11-10T08:28:56.714Z,80.71
2022-11-10T08:29:06.769Z,80.71
2022-11-10T08:29:16.824Z,80.82
2022-11-10T08:29:26.884Z,80.82
2022-11-10T08:29:36.953Z,80.71
2022-11-10T08:29:47.016Z,80.71
2022-11-10T08:29:57.073Z,80.61
2022-11-10T08:30:07.135Z,80.61
2022-11-10T08:30:17.244Z,80.61
2022-11-10T08:30:27.304Z,80.61
2022-11-10T08:30:37.352Z,80.61
2022-11-10T08:30:47.415Z,80.51
2022-11-10T08:31:00.394Z,80.51
2022-11-10T08:31:08.423Z,80.51
2022-11-10T08:31:18.527Z,80.51
2022-11-10T08:31:28.592Z,80.41
2022-11-10T08:31:38.651Z,80.41
2022-11-10T08:31:48.734Z,80.41
2022-11-10T08:31:58.803Z,80.41
2022-11-10T08:32:08.863Z,80.41
2022-11-10T08:32:18.924Z,80.41
2022-11-10T08:32:29.004Z,80.41
2022-11-10T08:32:39.073Z,80.41
2022-11-10T08:32:49.135Z,80.51
2022-11-10T08:32:59.258Z,80.47
2022-11-10T08:33:09.294Z,80.47
2022-11-10T08:33:19.612Z,80.47
2022-11-10T08:33:29.341Z,80.47
2022-11-10T08:33:39.433Z,80.47
2022-11-10T08:33:49.579Z,80.47
2022-11-10T08:33:59.636Z,80.47
2022-11-10T08:34:09.682Z,80.47
2022-11-10T08:34:19.844Z,80.37
2022-11-10T08:34:29.914Z,80.37
2022-11-10T08:34:39.995Z,80.27
2022-11-10T08:34:50.136Z,80.27
2022-11-10T08:35:00.264Z,80.27
2022-11-10T08:35:10.316Z,80.27
2022-11-10T08:35:20.383Z,80.27
2022-11-10T08:35:30.498Z,80.27
2022-11-10T08:35:40.556Z,80.27
2022-11-10T08:35:50.645Z,80.27
2022-11-10T08:36:00.716Z,80.27
2022-11-10T08:36:10.828Z,80.27
2022-11-10T08:36:20.884Z,80.27
2022-11-10T08:36:30.963Z,80.27
2022-11-10T08:36:41.086Z,80.27
2022-11-10T08:36:51.144Z,80.27
2022-11-10T08:37:01.215Z,80.27
2022-11-10T08:37:11.292Z,80.27
2022-11-10T08:37:21.392Z,80.27
2022-11-10T08:37:31.484Z,80.27
2022-11-10T08:37:41.571Z,80.27
2022-11-10T08:37:51.705Z,80.16
2022-11-10T08:38:06.536Z,80.27
2022-11-10T08:38:12.716Z,80.27
2022-11-10T08:38:22.773Z,80.27
2022-11-10T08:38:32.855Z,80.27
2022-11-10T08:38:42.923Z,80.16
2022-11-10T08:38:52.996Z,80.16
2022-11-10T08:39:03.129Z,80.16
2022-11-10T08:39:17.537Z,80.16
2022-11-10T08:39:38.106Z,80.27
2022-11-10T08:39:39.562Z,80.27
2022-11-10T08:39:45.290Z,80.27
2022-11-10T08:39:55.362Z,80.27
2022-11-10T08:40:05.453Z,80.27
2022-11-10T08:40:15.551Z,80.27
2022-11-10T08:40:25.683Z,80.27
2022-11-10T08:40:35.743Z,80.27
2022-11-10T08:40:45.834Z,80.27
2022-11-10T08:40:55.902Z,80.16
2022-11-10T08:41:05.982Z,80.07
2022-11-10T08:41:16.043Z,80.07
2022-11-10T08:41:26.114Z,80.07
2022-11-10T08:41:36.185Z,80.07
2022-11-10T08:41:46.274Z,80.07
2022-11-10T08:41:56.344Z,80.07
2022-11-10T08:42:06.479Z,80.07
2022-11-10T08:42:16.575Z,80.07
2022-11-10T08:42:26.703Z,80.07
2022-11-10T08:42:36.793Z,80.07
2022-11-10T08:42:46.863Z,80.07
2022-11-10T08:42:56.958Z,79.96
2022-11-10T08:43:07.026Z,79.96
2022-11-10T08:43:17.147Z,79.96
2022-11-10T08:43:27.242Z,79.96
2022-11-10T08:43:37.312Z,79.96
2022-11-10T08:43:47.383Z,79.96
2022-11-10T08:43:57.474Z,79.96
2022-11-10T08:44:10.845Z,79.96
2022-11-10T08:44:20.705Z,79.86
2022-11-10T08:44:27.561Z,79.96
2022-11-10T08:44:37.631Z,79.96
2022-11-10T08:44:47.762Z,79.86
2022-11-10T08:44:57.724Z,79.86
2022-11-10T08:45:07.802Z,79.86
2022-11-10T08:45:17.931Z,79.86
2022-11-10T08:45:28.003Z,79.86
2022-11-10T08:45:38.080Z,79.86
2022-11-10T08:45:48.137Z,79.86
2022-11-10T08:45:58.130Z,79.75
2022-11-10T08:46:08.121Z,79.72
2022-11-10T08:46:18.191Z,79.75
2022-11-10T08:46:28.283Z,79.66
2022-11-10T08:46:38.355Z,79.66
2022-11-10T08:46:48.461Z,79.55
2022-11-10T08:46:58.591Z,79.55
2022-11-10T08:47:08.652Z,79.55
2022-11-10T08:47:18.733Z,79.55
2022-11-10T08:47:28.873Z,79.55
2022-11-10T08:47:38.950Z,79.55
2022-11-10T08:47:49.031Z,79.55
2022-11-10T08:47:59.130Z,79.55
2022-11-10T08:48:09.213Z,79.55
2022-11-10T08:48:19.335Z,79.52
2022-11-10T08:48:29.412Z,79.66
2022-11-10T08:48:39.534Z,79.62
2022-11-10T08:48:49.620Z,79.62
2022-11-10T08:48:59.711Z,79.52
2022-11-10T08:49:09.815Z,79.52
2022-11-10T08:49:19.930Z,79.41
2022-11-10T08:49:29.998Z,79.41
2022-11-10T08:49:40.064Z,79.41
2022-11-10T08:49:50.157Z,79.52
2022-11-10T08:50:00.233Z,79.52
2022-11-10T08:50:10.323Z,79.52
2022-11-10T08:50:20.400Z,79.52
2022-11-10T08:50:30.522Z,79.52
2022-11-10T08:50:40.662Z,79.52
2022-11-10T08:50:50.743Z,79.52
2022-11-10T08:51:00.805Z,79.52
2022-11-10T08:51:10.892Z,79.52
2022-11-10T08:51:20.953Z,79.52
2022-11-10T08:51:36.328Z,79.52
2022-11-10T08:51:41.991Z,79.41
2022-11-10T08:51:52.071Z,79.41
2022-11-10T08:52:02.153Z,79.41
2022-11-10T08:52:12.222Z,79.41
2022-11-10T08:52:22.292Z,79.41
2022-11-10T08:52:32.364Z,79.41
2022-11-10T08:52:42.440Z,79.41
2022-11-10T08:52:52.513Z,79.41
2022-11-10T08:53:02.621Z,79.41
2022-11-10T08:53:12.605Z,79.32
2022-11-10T08:53:23.014Z,79.32
2022-11-10T08:53:32.867Z,79.21
2022-11-10T08:53:42.751Z,79.21
2022-11-10T08:53:52.825Z,79.21
2022-11-10T08:54:02.904Z,79.21
2022-11-10T08:54:12.953Z,79.21
2022-11-10T08:54:23.052Z,79.32
2022-11-10T08:54:33.205Z,79.32
2022-11-10T08:54:43.283Z,79.32
2022-11-10T08:54:53.350Z,79.21
2022-11-10T08:55:03.511Z,79.21
2022-11-10T08:55:13.487Z,79.21
2022-11-10T08:55:23.630Z,79.21
2022-11-10T08:55:33.972Z,79.32
2022-11-10T08:55:43.713Z,79.32
2022-11-10T08:55:53.934Z,79.32
2022-11-10T08:56:03.887Z,79.32
2022-11-10T08:56:13.934Z,79.32
2022-11-10T08:56:24.043Z,79.21
2022-11-10T08:56:34.113Z,79.21
2022-11-10T08:56:44.173Z,79.21
2022-11-10T08:56:54.242Z,79.21
2022-11-10T08:57:04.350Z,79.11
2022-11-10T08:57:14.577Z,79.21
2022-11-10T08:57:24.522Z,79.21
2022-11-10T08:57:34.601Z,79.11
2022-11-10T08:57:44.723Z,79.11
2022-11-10T08:57:54.781Z,79.00
2022-11-10T08:58:04.869Z,79.00
2022-11-10T08:58:14.851Z,79.00
2022-11-10T08:58:24.952Z,79.00
2022-11-10T08:58:42.192Z,79.00
2022-11-10T08:58:52.944Z,79.11
2022-11-10T08:58:56.953Z,79.11
2022-11-10T08:59:07.027Z,79.21
2022-11-10T08:59:17.128Z,79.21
2022-11-10T08:59:27.190Z,79.11
2022-11-10T08:59:37.292Z,79.21
2022-11-10T08:59:47.402Z,79.21
2022-11-10T08:59:57.395Z,79.21
2022-11-10T09:00:07.457Z,79.32
2022-11-10T09:00:17.523Z,79.32
2022-11-10T09:00:27.639Z,79.32
2022-11-10T09:00:37.682Z,79.32
2022-11-10T09:00:47.740Z,79.32
2022-11-10T09:00:57.809Z,79.21
2022-11-10T09:01:07.899Z,79.11
2022-11-10T09:01:17.951Z,79.11
2022-11-10T09:01:28.030Z,79.00
2022-11-10T09:01:38.091Z,79.00
2022-11-10T09:01:48.175Z,79.00
2022-11-10T09:01:58.240Z,79.00
2022-11-10T09:02:08.362Z,79.00
2022-11-10T09:02:18.461Z,79.00
2022-11-10T09:02:28.551Z,79.00
2022-11-10T09:02:38.611Z,79.00
2022-11-10T09:02:48.711Z,79.00
2022-11-10T09:02:58.781Z,79.00
2022-11-10T09:03:08.848Z,79.00
2022-11-10T09:03:19.224Z,79.00
2022-11-10T09:03:29.051Z,79.00
2022-11-10T09:03:39.140Z,78.91
2022-11-10T09:03:49.200Z,78.80
2022-11-10T09:03:59.279Z,78.80
2022-11-10T09:04:09.409Z,78.80
2022-11-10T09:04:19.568Z,78.80
2022-11-10T09:04:29.533Z,78.80
2022-11-10T09:04:39.525Z,78.80
2022-11-10T09:04:49.491Z,78.80
2022-11-10T09:04:59.496Z,78.80
2022-11-10T09:05:09.499Z,78.80
2022-11-10T09:05:19.551Z,78.80
2022-11-10T09:05:29.685Z,78.80
2022-11-10T09:05:39.748Z,78.70
2022-11-10T09:05:55.030Z,78.70
2022-11-10T09:06:00.839Z,78.70
2022-11-10T09:06:10.901Z,78.66
2022-11-10T09:06:20.963Z,78.77
2022-11-10T09:06:31.089Z,78.77
2022-11-10T09:06:41.022Z,78.66
2022-11-10T09:06:51.134Z,78.66
2022-11-10T09:07:01.266Z,78.66
2022-11-10T09:07:11.402Z,78.77
2022-11-10T09:07:21.432Z,78.66
2022-11-10T09:07:31.542Z,78.66
2022-11-10T09:07:41.616Z,78.66
2022-11-10T09:07:51.710Z,78.77
2022-11-10T09:08:01.806Z,78.77
2022-11-10T09:08:11.882Z,78.77
2022-11-10T09:08:21.954Z,78.77
2022-11-10T09:08:32.032Z,78.77
2022-11-10T09:08:42.201Z,78.77
2022-11-10T09:08:52.081Z,78.66
2022-11-10T09:09:02.159Z,78.66
2022-11-10T09:09:12.230Z,78.56
2022-11-10T09:09:22.352Z,78.56
2022-11-10T09:09:32.432Z,78.46
2022-11-10T09:09:42.460Z,78.46
2022-11-10T09:10:06.612Z,78.46
2022-11-10T09:10:07.807Z,78.46
2022-11-10T09:10:13.568Z,78.46
2022-11-10T09:10:23.684Z,78.46
2022-11-10T09:10:33.574Z,78.46
2022-11-10T09:10:43.621Z,78.46
2022-11-10T09:10:53.623Z,78.46
2022-11-10T09:11:03.640Z,78.46
2022-11-10T09:11:13.718Z,78.46
2022-11-10T09:11:23.680Z,78.46
2022-11-10T09:11:33.702Z,78.46
2022-11-10T09:11:43.798Z,78.46
2022-11-10T09:11:53.879Z,78.46
2022-11-10T09:12:03.986Z,78.46
2022-11-10T09:12:14.051Z,78.46
2022-11-10T09:12:24.071Z,78.46
2022-11-10T09:12:34.090Z,78.46
2022-11-10T09:12:44.100Z,78.46
2022-11-10T09:12:54.122Z,78.46
2022-11-10T09:13:04.160Z,78.46
2022-11-10T09:13:14.202Z,78.46
2022-11-10T09:13:29.384Z,78.46
2022-11-10T09:13:35.694Z,78.36
2022-11-10T09:13:45.319Z,78.36
2022-11-10T09:13:55.339Z,78.26
2022-11-10T09:14:05.419Z,78.26
2022-11-10T09:14:15.453Z,78.26
2022-11-10T09:14:25.469Z,78.26
2022-11-10T09:14:35.470Z,78.26
2022-11-10T09:14:45.509Z,78.32
2022-11-10T09:14:55.631Z,78.22
2022-11-10T09:15:05.671Z,78.22
2022-11-10T09:15:15.842Z,78.22
2022-11-10T09:15:25.749Z,78.22
2022-11-10T09:15:35.850Z,78.12
2022-11-10T09:15:45.900Z,78.12
2022-11-10T09:15:55.997Z,78.12
2022-11-10T09:16:06.019Z,78.22
2022-11-10T09:16:16.070Z,78.22
2022-11-10T09:16:26.119Z,78.22
2022-11-10T09:16:36.188Z,78.22
2022-11-10T09:16:46.252Z,78.12
2022-11-10T09:16:56.301Z,78.12
2022-11-10T09:17:06.381Z,78.12
2022-11-10T09:17:16.459Z,78.12
2022-11-10T09:17:26.509Z,78.12
2022-11-10T09:17:36.520Z,78.02
2022-11-10T09:17:46.571Z,78.02
2022-11-10T09:17:56.790Z,78.02
2022-11-10T09:18:06.791Z,78.02
2022-11-10T09:18:16.668Z,78.02
2022-11-10T09:18:26.741Z,77.91
2022-11-10T09:18:36.807Z,77.91
2022-11-10T09:18:46.871Z,77.81
2022-11-10T09:18:57.030Z,77.81
2022-11-10T09:19:07.165Z,77.81
2022-11-10T09:19:20.022Z,77.91
2022-11-10T09:19:27.463Z,77.81
2022-11-10T09:19:37.585Z,77.91
2022-11-10T09:19:47.689Z,77.91
2022-11-10T09:19:57.798Z,77.81
2022-11-10T09:20:07.903Z,77.91
2022-11-10T09:20:17.810Z,77.91
2022-11-10T09:20:27.928Z,77.91
2022-11-10T09:20:37.864Z,77.91
2022-11-10T09:20:47.918Z,77.91
2022-11-10T09:20:57.975Z,77.91
2022-11-10T09:21:08.018Z,77.91
2022-11-10T09:21:18.118Z,77.91
2022-11-10T09:21:28.068Z,77.91
2022-11-10T09:21:38.127Z,77.91
2022-11-10T09:21:48.194Z,77.91
2022-11-10T09:21:58.230Z,77.91
2022-11-10T09:22:08.299Z,77.91
2022-11-10T09:22:18.360Z,78.02
2022-11-10T09:22:28.504Z,78.02
2022-11-10T09:22:38.600Z,78.02
2022-11-10T09:22:48.669Z,77.91
2022-11-10T09:22:58.737Z,77.91
2022-11-10T09:23:08.799Z,77.91
2022-11-10T09:23:19.073Z,77.81
2022-11-10T09:23:28.978Z,77.81
2022-11-10T09:23:39.042Z,77.81
2022-11-10T09:23:49.139Z,77.81
2022-11-10T09:23:59.179Z,77.81
2022-11-10T09:24:09.307Z,77.91
2022-11-10T09:24:19.360Z,77.91
2022-11-10T09:24:31.505Z,77.91
2022-11-10T09:24:39.340Z,77.91
2022-11-10T09:24:49.479Z,77.91
2022-11-10T09:24:59.550Z,77.91
2022-11-10T09:25:09.596Z,77.91
2022-11-10T09:25:19.719Z,77.91
2022-11-10T09:25:29.829Z,77.91
2022-11-10T09:25:39.879Z,77.91
2022-11-10T09:25:49.956Z,77.91
2022-11-10T09:26:00.009Z,77.91
2022-11-10T09:26:10.062Z,77.91
2022-11-10T09:26:20.145Z,77.91
2022-11-10T09:26:30.197Z,77.81
2022-11-10T09:26:40.247Z,77.81
2022-11-10T09:26:50.301Z,77.91
2022-11-10T09:27:00.381Z,77.91
2022-11-10T09:27:10.450Z,77.91
2022-11-10T09:27:20.519Z,77.91
2022-11-10T09:27:30.592Z,77.91
2022-11-10T09:27:40.579Z,77.91
2022-11-10T09:27:50.678Z,77.81
2022-11-10T09:28:00.761Z,77.91
2022-11-10T09:28:10.833Z,77.91
2022-11-10T09:28:20.809Z,77.91
2022-11-10T09:28:30.900Z,77.91
2022-11-10T09:28:41.018Z,77.91
2022-11-10T09:28:51.080Z,77.91
2022-11-10T09:29:01.178Z,77.91
2022-11-10T09:29:11.238Z,77.81
2022-11-10T09:29:21.318Z,77.71
2022-11-10T09:29:31.380Z,77.61
2022-11-10T09:29:41.450Z,77.61
2022-11-10T09:29:51.590Z,77.61
2022-11-10T09:30:01.675Z,77.61
2022-11-10T09:30:16.375Z,77.61
2022-11-10T09:30:22.823Z,77.61
2022-11-10T09:30:32.828Z,77.61
2022-11-10T09:30:42.900Z,77.71
2022-11-10T09:30:52.975Z,77.71
2022-11-10T09:31:03.120Z,77.61
2022-11-10T09:31:13.188Z,77.61
2022-11-10T09:31:23.336Z,77.61
2022-11-10T09:31:33.469Z,77.61
2022-11-10T09:31:43.598Z,77.61
2022-11-10T09:31:53.667Z,77.61
2022-11-10T09:32:03.728Z,77.61
2022-11-10T09:32:13.857Z,77.61
2022-11-10T09:32:23.932Z,77.61
2022-11-10T09:32:33.992Z,77.71
2022-11-10T09:32:44.059Z,77.71
2022-11-10T09:32:54.127Z,77.61
2022-11-10T09:33:04.243Z,77.71
2022-11-10T09:33:14.320Z,77.61
2022-11-10T09:33:24.686Z,77.61
2022-11-10T09:33:34.474Z,77.71
2022-11-10T09:33:44.649Z,77.71
2022-11-10T09:33:54.706Z,77.71
2022-11-10T09:34:04.758Z,77.81
2022-11-10T09:34:14.839Z,77.81
2022-11-10T09:34:24.900Z,77.81
2022-11-10T09:34:34.886Z,77.81
2022-11-10T09:34:50.288Z,77.81
2022-11-10T09:34:55.928Z,77.81
2022-11-10T09:35:05.997Z,77.81
2022-11-10T09:35:16.077Z,77.81
2022-11-10T09:35:26.160Z,77.91
2022-11-10T09:35:36.108Z,77.91
2022-11-10T09:35:46.189Z,77.81
2022-11-10T09:35:56.310Z,77.81
2022-11-10T09:36:06.370Z,77.81
2022-11-10T09:36:16.428Z,77.81
2022-11-10T09:36:26.518Z,77.81
2022-11-10T09:36:36.597Z,77.71
2022-11-10T09:36:46.678Z,77.61
2022-11-10T09:36:56.648Z,77.61
2022-11-10T09:37:06.745Z,77.51
2022-11-10T09:37:16.834Z,77.51
2022-11-10T09:37:26.978Z,77.51
2022-11-10T09:37:37.057Z,77.51
2022-11-10T09:37:47.121Z,77.61
2022-11-10T09:37:57.187Z,77.61
2022-11-10T09:38:07.244Z,77.61
2022-11-10T09:38:17.316Z,77.61
2022-11-10T09:38:27.378Z,77.61
2022-11-10T09:38:37.497Z,77.61
2022-11-10T09:38:47.570Z,77.61
2022-11-10T09:38:57.670Z,77.61
2022-11-10T09:39:07.779Z,77.51
2022-11-10T09:39:17.858Z,77.51
2022-11-10T09:39:27.937Z,77.51
2022-11-10T09:39:38.032Z,77.51
2022-11-10T09:39:48.078Z,77.51
2022-11-10T09:40:01.357Z,77.51
2022-11-10T09:40:12.639Z,77.51
2022-11-10T09:40:18.271Z,77.51
2022-11-10T09:40:28.350Z,77.61
2022-11-10T09:40:38.418Z,77.61
2022-11-10T09:40:48.548Z,77.61
2022-11-10T09:40:58.616Z,77.61
2022-11-10T09:41:08.709Z,77.61
2022-11-10T09:41:18.826Z,77.61
2022-11-10T09:41:28.889Z,77.61
2022-11-10T09:41:38.968Z,77.61
2022-11-10T09:41:49.045Z,77.71
2022-11-10T09:41:59.143Z,77.71
2022-11-10T09:42:09.217Z,77.71
2022-11-10T09:42:19.298Z,77.71
2022-11-10T09:42:29.377Z,77.71
2022-11-10T09:42:39.458Z,77.71
2022-11-10T09:42:49.598Z,77.71
2022-11-10T09:42:59.547Z,77.71
2022-11-10T09:43:09.618Z,77.61
2022-11-10T09:43:19.819Z,77.61
2022-11-10T09:43:29.715Z,77.61
2022-11-10T09:43:39.767Z,77.61
2022-11-10T09:43:49.833Z,77.61
2022-11-10T09:43:59.876Z,77.61
2022-11-10T09:44:09.960Z,77.61
2022-11-10T09:44:20.017Z,77.51
2022-11-10T09:44:30.077Z,77.51
2022-11-10T09:44:40.156Z,77.51
2022-11-10T09:44:50.247Z,77.40
2022-11-10T09:45:00.334Z,77.51
2022-11-10T09:45:10.486Z,77.51
2022-11-10T09:45:20.554Z,77.51
2022-11-10T09:45:35.067Z,77.51
2022-11-10T09:45:41.588Z,77.51
2022-11-10T09:45:51.637Z,77.51
2022-11-10T09:46:01.726Z,77.51
2022-11-10T09:46:11.818Z,77.51
2022-11-10T09:46:21.929Z,77.51
2022-11-10T09:46:31.987Z,77.51
2022-11-10T09:46:42.087Z,77.51
2022-11-10T09:46:52.209Z,77.51
2022-11-10T09:47:02.347Z,77.51
2022-11-10T09:47:18.639Z,77.51
2022-11-10T09:47:50.603Z,77.51
2022-11-10T09:47:56.148Z,77.61
2022-11-10T09:47:58.080Z,77.61
2022-11-10T09:48:00.648Z,77.61
2022-11-10T09:48:06.536Z,77.61
2022-11-10T09:48:16.606Z,77.51
2022-11-10T09:48:26.675Z,77.51
2022-11-10T09:48:36.759Z,77.51
2022-11-10T09:48:46.797Z,77.51
2022-11-10T09:48:56.856Z,77.51